Time;durP1;ratioP1;P1;durP2;ratioP2;P2;SDS_P1;SDS_P2;PMS_P1;PMS_P2;Temp;Humidity;BMP_temperature;BMP_pressure;BME280_temperature;BME280_humidity;BME280_pressure;Samples;Min_cycle;Max_cycle;Signal;HPM_P1;HPM_P2
2021/08/08 00:00:28;;;;;;;2.13;0.60;;;;;;;16.96;78.45;99712.84;5030170;28;20403;-83
2021/08/08 00:02:53;;;;;;;0.70;0.57;;;;;;;16.94;78.85;99708.78;5030737;28;20402;-85
2021/08/08 00:05:18;;;;;;;1.17;0.50;;;;;;;17.00;78.91;99708.38;5030825;28;20498;-84
2021/08/08 00:07:44;;;;;;;1.63;0.73;;;;;;;16.98;79.05;99707.06;5030504;28;20411;-86
2021/08/08 00:10:12;;;;;;;3.20;0.88;;;;;;;17.09;78.55;99700.28;5031075;28;20512;-85
2021/08/08 00:12:38;;;;;;;1.05;0.73;;;;;;;17.11;78.55;99704.31;5031020;28;20496;-85
2021/08/08 00:15:05;;;;;;;1.40;0.93;;;;;;;17.08;78.90;99710.41;5030637;28;20945;-85
2021/08/08 00:17:30;;;;;;;1.20;0.80;;;;;;;17.05;78.88;99708.28;5029483;28;20759;-84
2021/08/08 00:19:55;;;;;;;1.40;0.50;;;;;;;17.02;79.08;99711.63;5030665;28;20433;-85
2021/08/08 00:22:21;;;;;;;0.70;0.70;;;;;;;17.02;79.15;99705.34;5031023;28;20425;-85
2021/08/08 00:24:46;;;;;;;3.03;0.53;;;;;;;17.06;79.03;99720.03;5029779;28;20399;-85
2021/08/08 00:27:12;;;;;;;1.23;1.05;;;;;;;17.12;78.90;99714.13;5030694;28;20534;-84
2021/08/08 00:29:37;;;;;;;2.43;1.10;;;;;;;17.07;78.67;99718.91;5030524;28;20770;-83
2021/08/08 00:32:03;;;;;;;1.03;0.90;;;;;;;16.98;78.90;99720.75;5030342;28;20399;-83
2021/08/08 00:34:28;;;;;;;1.10;0.77;;;;;;;16.98;78.85;99724.31;5030062;28;20407;-85
2021/08/08 00:36:53;;;;;;;1.10;0.60;;;;;;;17.03;78.82;99712.44;5031148;28;20418;-85
2021/08/08 00:39:20;;;;;;;0.70;0.63;;;;;;;17.04;78.41;99716.78;5030700;28;20454;-85
2021/08/08 00:41:46;;;;;;;1.70;0.50;;;;;;;17.04;78.25;99719.53;5030837;28;20411;-85
2021/08/08 00:44:11;;;;;;;1.97;0.70;;;;;;;17.07;78.34;99722.47;5029126;28;20478;-85
2021/08/08 00:46:36;;;;;;;1.00;0.63;;;;;;;17.03;77.85;99715.16;5030587;28;20490;-85
2021/08/08 00:49:02;;;;;;;0.67;0.60;;;;;;;17.06;78.08;99720.03;5030277;28;20965;-85
2021/08/08 00:51:28;;;;;;;0.57;0.57;;;;;;;17.04;78.08;99720.34;5034227;28;20410;-87
2021/08/08 00:53:54;;;;;;;2.60;0.40;;;;;;;17.04;77.76;99727.75;5033936;28;20406;-85
2021/08/08 00:56:19;;;;;;;0.43;0.43;;;;;;;16.99;77.58;99731.38;5017015;28;20777;-85
2021/08/08 00:58:44;;;;;;;2.23;0.83;;;;;;;16.96;77.65;99734.72;5034129;28;20422;-85
2021/08/08 01:01:13;;;;;;;0.50;0.50;;;;;;;16.98;77.69;99734.44;5033645;28;20399;-85
2021/08/08 01:03:40;;;;;;;1.60;1.00;;;;;;;17.03;77.58;99726.94;5033516;28;20886;-84
2021/08/08 01:06:16;;;;;;;1.00;0.40;;;;;;;17.12;77.17;99743.47;5033661;28;20434;-86
2021/08/08 01:08:51;;;;;;;1.55;0.50;;;;;;;17.13;76.95;99740.41;5033814;28;20403;-85
2021/08/08 01:11:19;;;;;;;0.60;0.40;;;;;;;17.08;76.73;99747.94;5016332;28;20398;-84
2021/08/08 01:13:47;;;;;;;1.20;0.40;;;;;;;17.04;76.31;99749.66;5034142;28;20407;-85
2021/08/08 01:16:15;;;;;;;2.60;0.35;;;;;;;17.08;76.36;99753.41;5034079;28;20736;-85
2021/08/08 01:18:43;;;;;;;1.02;0.52;;;;;;;17.06;76.50;99764.63;5033407;28;20421;-85
2021/08/08 01:21:09;;;;;;;3.35;0.60;;;;;;;17.02;76.37;99758.19;5033660;28;20407;-85
2021/08/08 01:23:37;;;;;;;0.50;0.50;;;;;;;17.05;76.41;99749.34;5033082;28;20478;-85
2021/08/08 01:26:02;;;;;;;1.15;0.50;;;;;;;17.05;76.43;99752.09;5031056;28;20395;-85
2021/08/08 01:28:28;;;;;;;0.73;0.73;;;;;;;17.02;76.66;99752.69;5033401;28;20430;-84
2021/08/08 01:30:53;;;;;;;4.20;0.50;;;;;;;17.06;76.29;99763.81;5036790;28;20506;-87
2021/08/08 01:33:18;;;;;;;1.37;0.60;;;;;;;17.05;76.39;99759.50;5033488;28;20403;-86
2021/08/08 01:35:44;;;;;;;3.83;0.83;;;;;;;17.06;76.69;99761.91;5033688;28;20399;-85
2021/08/08 01:38:10;;;;;;;3.00;0.80;;;;;;;17.06;76.70;99763.81;5033398;28;20411;-85
2021/08/08 01:40:41;;;;;;;1.08;0.52;;;;;;;17.00;77.11;99757.66;5032113;28;20509;-85
2021/08/08 01:43:10;;;;;;;1.30;0.60;;;;;;;16.97;77.30;99761.00;5025530;28;20486;-84
2021/08/08 01:45:39;;;;;;;0.43;0.43;;;;;;;16.91;77.28;99753.19;5033041;28;20406;-84
2021/08/08 01:48:08;;;;;;;0.90;0.60;;;;;;;16.86;77.75;99753.31;5033783;28;20415;-84
2021/08/08 01:50:34;;;;;;;1.85;0.80;;;;;;;16.82;78.18;99750.38;5032666;28;20457;-84
2021/08/08 01:53:00;;;;;;;2.27;1.33;;;;;;;16.82;78.39;99744.88;5032948;28;20441;-85
2021/08/08 01:55:26;;;;;;;0.77;0.77;;;;;;;16.86;78.23;99748.63;5032526;28;20492;-84
2021/08/08 01:57:52;;;;;;;0.70;0.70;;;;;;;16.88;78.46;99749.16;5032973;28;20401;-84
2021/08/08 02:00:20;;;;;;;0.73;0.50;;;;;;;16.88;78.46;99748.31;5030418;28;20426;-84
2021/08/08 02:02:56;;;;;;;1.40;0.68;;;;;;;16.89;78.53;99747.22;5032393;28;20399;-85
2021/08/08 02:05:24;;;;;;;1.60;0.88;;;;;;;16.89;78.40;99753.47;5033325;28;20414;-85
2021/08/08 02:07:50;;;;;;;1.83;0.70;;;;;;;16.90;78.64;99759.78;5032996;28;20403;-85
2021/08/08 02:10:16;;;;;;;6.30;0.90;;;;;;;16.88;78.91;99759.28;5032172;28;20410;-84
2021/08/08 02:12:41;;;;;;;2.55;1.15;;;;;;;16.86;78.96;99759.56;5032421;28;20403;-84
2021/08/08 02:15:09;;;;;;;3.53;0.90;;;;;;;16.85;78.84;99762.63;5031934;28;20407;-84
2021/08/08 02:17:34;;;;;;;2.47;0.93;;;;;;;16.87;78.99;99755.72;5032850;28;20414;-84
2021/08/08 02:20:05;;;;;;;5.00;1.10;;;;;;;16.88;78.78;99762.81;5032221;28;20418;-84
2021/08/08 02:22:30;;;;;;;2.40;0.68;;;;;;;16.88;78.58;99765.56;5029001;28;20770;-84
2021/08/08 02:24:55;;;;;;;2.20;0.70;;;;;;;16.90;78.53;99767.97;5032069;28;20403;-84
2021/08/08 02:27:20;;;;;;;2.50;1.30;;;;;;;16.89;78.52;99775.38;5031825;28;20451;-84
2021/08/08 02:29:46;;;;;;;0.63;0.60;;;;;;;16.88;78.38;99773.78;5032148;28;20414;-84
2021/08/08 02:32:11;;;;;;;0.97;0.73;;;;;;;16.87;78.41;99765.84;5031374;28;20398;-85
2021/08/08 02:34:36;;;;;;;3.37;0.80;;;;;;;16.89;78.18;99780.84;5031621;28;20407;-85
2021/08/08 02:37:02;;;;;;;1.00;0.50;;;;;;;16.89;78.20;99771.84;5032430;28;20893;-84
2021/08/08 02:39:27;;;;;;;2.70;0.50;;;;;;;16.90;77.69;99763.31;5031932;28;20423;-85
2021/08/08 02:41:52;;;;;;;3.33;0.70;;;;;;;16.89;77.39;99769.13;5031711;28;20399;-84
2021/08/08 02:44:18;;;;;;;0.77;0.50;;;;;;;16.89;77.65;99771.84;5031822;28;20449;-85
2021/08/08 02:46:43;;;;;;;3.77;0.73;;;;;;;16.89;77.39;99780.84;5031734;28;20395;-85
2021/08/08 02:49:09;;;;;;;1.45;0.70;;;;;;;16.87;77.40;99772.13;5032002;28;20770;-85
2021/08/08 02:51:34;;;;;;;1.20;0.60;;;;;;;16.89;77.37;99785.53;5031627;28;20442;-85
2021/08/08 02:53:59;;;;;;;1.80;0.60;;;;;;;16.87;77.31;99794.03;5031547;28;20818;-85
2021/08/08 02:56:24;;;;;;;2.00;0.70;;;;;;;16.89;77.35;99782.81;5032145;28;20405;-85
2021/08/08 02:58:50;;;;;;;0.73;0.60;;;;;;;16.83;77.25;99800.41;5031832;28;20407;-83
2021/08/08 03:01:15;;;;;;;2.60;0.57;;;;;;;16.83;77.47;99800.41;5031158;28;20805;-84
2021/08/08 03:03:40;;;;;;;1.25;0.70;;;;;;;16.86;77.24;99800.59;5030709;28;20430;-84
2021/08/08 03:06:11;;;;;;;0.90;0.53;;;;;;;16.87;77.18;99796.78;5031482;28;20399;-84
2021/08/08 03:08:37;;;;;;;1.27;0.70;;;;;;;16.90;76.83;99801.63;5031268;28;20941;-85
2021/08/08 03:11:02;;;;;;;2.60;0.52;;;;;;;16.90;76.69;99811.78;5031414;28;20429;-84
2021/08/08 03:13:27;;;;;;;2.75;0.93;;;;;;;16.87;76.84;99804.16;5031508;28;20399;-85
2021/08/08 03:15:52;;;;;;;1.20;0.73;;;;;;;16.83;76.74;99809.44;5013987;28;20460;-84
2021/08/08 03:18:18;;;;;;;2.20;0.70;;;;;;;16.87;76.67;99815.94;5031611;28;20403;-84
2021/08/08 03:20:43;;;;;;;2.10;0.80;;;;;;;16.87;76.50;99824.13;5030808;28;20406;-84
2021/08/08 03:23:09;;;;;;;2.63;0.70;;;;;;;16.81;76.76;99819.06;5031349;28;20407;-84
2021/08/08 03:25:35;;;;;;;1.25;0.73;;;;;;;16.81;76.71;99830.00;5030729;28;20399;-83
2021/08/08 03:28:00;;;;;;;2.00;0.87;;;;;;;16.81;76.57;99828.09;5031358;28;20529;-84
2021/08/08 03:30:25;;;;;;;3.70;0.70;;;;;;;16.73;76.71;99836.19;5031822;28;20423;-85
2021/08/08 03:32:50;;;;;;;2.13;0.70;;;;;;;16.73;76.79;99839.72;5030720;28;20399;-83
2021/08/08 03:35:16;;;;;;;1.00;0.60;;;;;;;16.72;76.87;99845.50;5013759;28;20477;-85
2021/08/08 03:37:41;;;;;;;1.60;1.13;;;;;;;16.78;77.11;99844.28;5029668;28;20407;-85
2021/08/08 03:40:07;;;;;;;2.60;0.83;;;;;;;16.82;76.88;99851.59;5031041;28;20445;-84
2021/08/08 03:42:33;;;;;;;0.80;0.50;;;;;;;16.86;76.67;99860.81;5030702;28;20418;-84
2021/08/08 03:44:58;;;;;;;1.10;0.50;;;;;;;16.88;76.80;99855.88;5031005;28;20411;-84
2021/08/08 03:47:23;;;;;;;2.83;1.47;;;;;;;16.84;76.73;99857.59;5031655;28;20395;-84
2021/08/08 03:49:48;;;;;;;1.75;1.65;;;;;;;16.82;76.95;99864.47;5034292;28;20507;-84
2021/08/08 03:52:14;;;;;;;2.80;1.80;;;;;;;16.83;77.16;99863.34;5030697;28;20418;-84
2021/08/08 03:54:39;;;;;;;3.83;1.03;;;;;;;16.79;77.02;99868.63;5030624;28;20464;-84
2021/08/08 03:57:04;;;;;;;1.37;0.70;;;;;;;16.75;76.85;99862.13;5031024;28;20494;-84
2021/08/08 03:59:30;;;;;;;0.87;0.80;;;;;;;16.76;76.91;99871.16;5031146;28;20429;-84
2021/08/08 04:01:55;;;;;;;1.47;0.87;;;;;;;16.75;76.57;99870.34;5030356;28;20426;-84
2021/08/08 04:04:20;;;;;;;2.50;1.17;;;;;;;16.75;76.61;99870.34;5031524;28;20447;-84
2021/08/08 04:06:45;;;;;;;3.00;0.83;;;;;;;16.71;76.60;99872.03;5030409;28;20874;-83
2021/08/08 04:09:11;;;;;;;1.80;0.70;;;;;;;16.68;76.63;99872.63;5030387;28;20407;-85
2021/08/08 04:11:37;;;;;;;4.10;0.90;;;;;;;16.68;76.76;99888.25;5030707;28;20414;-84
2021/08/08 04:14:02;;;;;;;4.07;0.98;;;;;;;16.70;76.80;99878.63;5012924;28;20882;-84
2021/08/08 04:16:27;;;;;;;3.17;0.73;;;;;;;16.76;76.47;99880.16;5030838;28;20402;-84
2021/08/08 04:18:52;;;;;;;1.50;0.70;;;;;;;16.77;76.10;99884.53;5030441;28;20469;-85
2021/08/08 04:21:18;;;;;;;2.13;0.60;;;;;;;16.82;76.12;99878.97;5025506;28;20878;-84
2021/08/08 04:23:43;;;;;;;2.00;0.50;;;;;;;16.82;75.83;99881.72;5030536;28;20490;-84
2021/08/08 04:26:08;;;;;;;2.40;0.70;;;;;;;16.80;75.87;99886.66;5009267;28;20406;-84
2021/08/08 04:28:39;;;;;;;1.75;0.52;;;;;;;16.84;75.83;99886.88;5034340;28;20906;-84
2021/08/08 04:31:05;;;;;;;3.10;0.60;;;;;;;16.82;75.80;99892.66;5032824;28;20399;-84
2021/08/08 04:33:30;;;;;;;3.70;0.77;;;;;;;16.85;75.36;99891.25;5034132;28;20402;-84
2021/08/08 04:35:56;;;;;;;1.70;0.67;;;;;;;16.90;75.60;99897.44;5034687;28;20978;-83
2021/08/08 04:38:21;;;;;;;1.83;0.60;;;;;;;16.90;75.36;99894.69;5034752;28;20409;-83
2021/08/08 04:40:46;;;;;;;3.83;0.70;;;;;;;16.91;75.31;99896.31;5034337;28;20399;-84
2021/08/08 04:43:12;;;;;;;4.87;0.90;;;;;;;16.89;75.42;99903.22;5034114;28;20399;-84
2021/08/08 04:45:37;;;;;;;2.20;0.40;;;;;;;16.91;75.31;99899.06;5034503;28;20445;-85
2021/08/08 04:48:02;;;;;;;1.20;0.80;;;;;;;16.92;75.23;99905.34;5033836;28;20411;-84
2021/08/08 04:50:28;;;;;;;1.30;0.40;;;;;;;16.93;75.02;99904.22;5033388;28;20935;-84
2021/08/08 04:52:53;;;;;;;1.30;0.57;;;;;;;17.00;74.99;99910.94;5034186;28;20399;-85
2021/08/08 04:55:18;;;;;;;2.00;0.40;;;;;;;17.03;74.28;99912.25;5036535;28;20878;-85
2021/08/08 04:57:44;;;;;;;2.70;1.00;;;;;;;17.03;74.34;99912.25;5035387;28;20407;-85
2021/08/08 05:00:10;;;;;;;3.65;0.70;;;;;;;17.04;74.49;99922.94;5035455;28;20957;-85
2021/08/08 05:02:35;;;;;;;8.05;0.70;;;;;;;17.01;74.82;99922.72;5034423;28;20399;-84
2021/08/08 05:05:07;;;;;;;3.22;1.00;;;;;;;16.95;75.00;99921.19;5035406;28;20581;-86
2021/08/08 05:07:38;;;;;;;6.80;0.90;;;;;;;16.93;75.01;99917.91;5033911;28;20415;-85
2021/08/08 05:10:06;;;;;;;2.60;0.50;;;;;;;16.96;74.92;99933.72;5035252;28;20481;-86
2021/08/08 05:12:31;;;;;;;1.42;0.60;;;;;;;17.01;74.29;99922.72;5018254;28;20430;-85
2021/08/08 05:14:56;;;;;;;1.47;0.60;;;;;;;17.03;74.44;99923.22;5016928;28;20449;-85
2021/08/08 05:17:22;;;;;;;2.13;0.60;;;;;;;17.07;74.57;99926.97;5034774;28;20932;-86
2021/08/08 05:19:47;;;;;;;1.57;0.70;;;;;;;17.04;74.23;99928.41;5035001;28;20425;-85
2021/08/08 05:22:12;;;;;;;1.00;0.70;;;;;;;17.08;74.58;99934.91;5034349;28;20403;-85
2021/08/08 05:24:37;;;;;;;1.83;0.63;;;;;;;17.10;74.67;99934.59;5033991;28;20414;-85
2021/08/08 05:27:03;;;;;;;5.03;1.13;;;;;;;17.18;74.73;99944.03;5034064;28;20415;-86
2021/08/08 05:29:28;;;;;;;1.00;0.70;;;;;;;17.22;74.43;99940.41;5036799;28;20762;-85
2021/08/08 05:31:53;;;;;;;2.37;0.73;;;;;;;17.28;74.57;99946.59;5034536;28;20750;-85
2021/08/08 05:34:19;;;;;;;3.17;0.80;;;;;;;17.30;74.88;99949.84;5032571;28;20405;-85
2021/08/08 05:36:44;;;;;;;1.63;0.70;;;;;;;17.28;74.77;99947.44;5033542;28;20407;-85
2021/08/08 05:39:09;;;;;;;2.67;0.60;;;;;;;17.32;74.68;99950.38;5033135;28;20813;-85
2021/08/08 05:41:35;;;;;;;5.00;1.40;;;;;;;17.36;74.39;99949.44;5033676;28;20483;-85
2021/08/08 05:44:00;;;;;;;4.10;1.40;;;;;;;17.37;74.20;99956.56;5038616;28;20843;-85
2021/08/08 05:46:25;;;;;;;2.07;0.63;;;;;;;17.33;73.74;99951.97;5033388;28;20499;-86
2021/08/08 05:48:51;;;;;;;1.73;0.77;;;;;;;17.41;73.97;99960.34;5033581;28;20900;-82
2021/08/08 05:51:16;;;;;;;1.00;0.30;;;;;;;17.45;73.43;99957.81;5033325;28;20838;-85
2021/08/08 05:53:41;;;;;;;3.40;0.90;;;;;;;17.53;73.55;99966.13;5031472;28;20415;-84
2021/08/08 05:56:06;;;;;;;2.03;0.50;;;;;;;17.55;73.12;99963.09;5032614;28;20414;-85
2021/08/08 05:58:32;;;;;;;4.00;0.70;;;;;;;17.59;73.60;99966.84;5026843;28;20894;-84
2021/08/08 06:00:57;;;;;;;3.03;0.70;;;;;;;17.57;73.27;99972.66;5032370;28;20421;-86
2021/08/08 06:03:22;;;;;;;1.73;0.80;;;;;;;17.57;72.76;99975.41;5032849;28;20403;-85
2021/08/08 06:05:48;;;;;;;1.20;0.50;;;;;;;17.59;73.00;99975.91;5031497;28;20441;-86
2021/08/08 06:08:13;;;;;;;1.48;0.47;;;;;;;17.61;72.89;99970.13;5032253;28;20452;-85
2021/08/08 06:10:39;;;;;;;2.43;0.60;;;;;;;17.59;73.46;99977.81;5031117;28;20410;-85
2021/08/08 06:13:04;;;;;;;1.65;0.80;;;;;;;17.58;73.80;99978.97;5032808;28;20406;-85
2021/08/08 06:15:29;;;;;;;2.23;0.60;;;;;;;17.58;73.61;99987.19;5032100;28;20442;-85
2021/08/08 06:17:55;;;;;;;2.23;0.60;;;;;;;17.65;73.46;99995.00;5031057;28;20456;-85
2021/08/08 06:20:20;;;;;;;1.90;0.50;;;;;;;17.66;73.38;99991.94;5033319;28;20426;-87
2021/08/08 06:22:45;;;;;;;2.13;0.60;;;;;;;17.74;73.58;99993.19;5032407;28;20475;-87
2021/08/08 06:25:11;;;;;;;3.03;0.60;;;;;;;17.82;73.32;99995.19;5032807;28;20407;-86
2021/08/08 06:27:36;;;;;;;0.57;0.57;;;;;;;17.86;73.27;99994.28;5031244;28;21237;-85
2021/08/08 06:30:02;;;;;;;1.50;1.10;;;;;;;17.93;72.70;99999.38;5032215;28;20403;-86
2021/08/08 06:32:28;;;;;;;2.05;0.95;;;;;;;17.93;72.96;99991.16;5032326;28;20496;-87
2021/08/08 06:34:53;;;;;;;2.07;0.47;;;;;;;17.95;72.69;99999.88;5029707;28;20444;-86
2021/08/08 06:37:18;;;;;;;2.77;0.57;;;;;;;17.87;72.89;99989.63;5031858;28;20429;-84
2021/08/08 06:39:43;;;;;;;2.63;0.80;;;;;;;17.77;72.80;99996.13;5032192;28;20414;-86
2021/08/08 06:42:09;;;;;;;2.83;0.67;;;;;;;17.74;73.36;100001.41;5032202;28;20407;-87
2021/08/08 06:44:34;;;;;;;0.77;0.50;;;;;;;17.76;73.41;99999.16;5031759;28;20878;-87
2021/08/08 06:46:59;;;;;;;1.20;0.50;;;;;;;17.77;73.77;99993.38;5031255;28;20399;-87
2021/08/08 06:49:25;;;;;;;2.07;0.50;;;;;;;17.87;73.29;99997.84;5031003;28;20443;-85
2021/08/08 06:51:57;;;;;;;2.27;0.70;;;;;;;17.90;73.15;100005.47;5012794;28;20755;-85
2021/08/08 06:54:23;;;;;;;2.60;0.88;;;;;;;17.99;72.67;100007.19;5013278;28;20467;-83
2021/08/08 06:56:48;;;;;;;3.87;0.80;;;;;;;18.00;72.89;100016.25;5030488;28;20910;-84
2021/08/08 06:59:13;;;;;;;1.80;0.70;;;;;;;17.96;72.35;100010.53;5030707;28;20829;-80
2021/08/08 07:01:39;;;;;;;1.27;0.63;;;;;;;17.97;72.33;100023.16;5031420;28;20484;-81
2021/08/08 07:04:04;;;;;;;2.00;0.70;;;;;;;18.03;72.52;100018.38;5031517;28;20399;-82
2021/08/08 07:06:30;;;;;;;2.23;0.60;;;;;;;18.12;72.72;100028.31;5031427;28;20403;-81
2021/08/08 07:08:55;;;;;;;1.30;0.77;;;;;;;18.22;72.31;100037.44;5030980;28;20407;-82
2021/08/08 07:11:20;;;;;;;1.13;0.70;;;;;;;18.24;72.04;100044.28;5031526;28;20917;-82
2021/08/08 07:13:45;;;;;;;2.03;0.70;;;;;;;18.27;72.16;100042.84;5031116;28;20411;-81
2021/08/08 07:16:11;;;;;;;2.03;0.73;;;;;;;18.23;71.13;100050.06;5031605;28;20411;-81
2021/08/08 07:18:36;;;;;;;2.85;1.20;;;;;;;18.31;71.35;100047.41;5030783;28;20975;-81
2021/08/08 07:21:02;;;;;;;2.07;0.80;;;;;;;18.46;69.87;100043.53;5031227;28;20861;-80
2021/08/08 07:23:27;;;;;;;1.17;0.60;;;;;;;18.49;70.32;100043.75;5031280;28;20747;-81
2021/08/08 07:25:52;;;;;;;5.30;0.80;;;;;;;18.59;69.95;100046.28;5030359;28;20418;-81
2021/08/08 07:28:18;;;;;;;2.30;0.77;;;;;;;18.67;69.69;100048.28;5030504;28;20415;-81
2021/08/08 07:30:43;;;;;;;3.47;1.40;;;;;;;18.72;69.57;100054.81;5038413;28;20752;-82
2021/08/08 07:33:08;;;;;;;3.38;0.95;;;;;;;18.60;69.97;100053.41;5030238;28;20423;-82
2021/08/08 07:35:36;;;;;;;0.80;0.60;;;;;;;18.54;70.16;100051.88;5030403;28;20759;-84
2021/08/08 07:38:02;;;;;;;2.70;0.77;;;;;;;18.55;70.61;100048.03;5028755;28;20779;-83
2021/08/08 07:40:28;;;;;;;3.97;0.90;;;;;;;18.59;69.80;100046.28;5029181;28;20572;-84
2021/08/08 07:42:53;;;;;;;3.50;0.70;;;;;;;18.67;69.51;100043.94;5030832;28;20825;-82
2021/08/08 07:45:18;;;;;;;1.55;0.63;;;;;;;18.87;68.88;100047.03;5030750;28;20490;-82
2021/08/08 07:47:47;;;;;;;2.33;0.70;;;;;;;18.94;68.53;100052.09;5028491;28;20902;-82
2021/08/08 07:50:13;;;;;;;3.42;0.90;;;;;;;18.99;67.97;100046.50;5009203;28;20419;-80
2021/08/08 07:52:38;;;;;;;2.53;0.83;;;;;;;19.03;67.17;100058.50;5029101;28;20410;-81
2021/08/08 07:55:05;;;;;;;3.83;1.20;;;;;;;19.13;68.05;100061.78;5029629;28;20790;-81
2021/08/08 07:57:30;;;;;;;8.73;1.40;;;;;;;19.13;67.61;100066.50;5029650;28;20882;-80
2021/08/08 07:59:55;;;;;;;3.80;1.33;;;;;;;19.09;67.18;100065.50;5023612;28;20424;-80
2021/08/08 08:02:20;;;;;;;1.98;1.30;;;;;;;19.15;66.92;100058.75;5031571;28;20464;-83
2021/08/08 08:04:46;;;;;;;3.13;1.07;;;;;;;19.12;66.26;100064.88;5030856;28;20421;-80
2021/08/08 08:07:11;;;;;;;5.10;1.30;;;;;;;19.01;66.66;100064.28;5014962;28;20486;-81
2021/08/08 08:09:37;;;;;;;2.07;1.00;;;;;;;18.89;67.31;100066.78;5029828;28;20399;-81
2021/08/08 08:12:02;;;;;;;2.90;1.07;;;;;;;18.82;67.81;100060.06;5024877;28;20413;-86
2021/08/08 08:14:27;;;;;;;6.07;1.30;;;;;;;18.75;68.27;100057.75;5027271;28;20513;-81
2021/08/08 08:16:53;;;;;;;1.90;0.80;;;;;;;18.70;68.71;100062.53;5011932;28;20862;-82
2021/08/08 08:19:18;;;;;;;3.33;1.53;;;;;;;18.79;68.61;100068.91;5030449;28;20434;-81
2021/08/08 08:21:44;;;;;;;3.63;1.10;;;;;;;18.90;69.68;100068.38;5027389;28;20427;-84
2021/08/08 08:24:10;;;;;;;3.35;1.10;;;;;;;18.87;69.76;100068.22;5031635;28;20401;-81
2021/08/08 08:26:35;;;;;;;4.17;1.00;;;;;;;18.80;69.19;100067.81;5040088;28;20425;-80
2021/08/08 08:29:01;;;;;;;4.88;1.55;;;;;;;18.74;68.09;100075.31;5033928;28;20399;-81
2021/08/08 08:31:26;;;;;;;1.90;0.90;;;;;;;18.72;67.87;100072.09;5029769;28;20763;-79
2021/08/08 08:33:51;;;;;;;3.27;1.27;;;;;;;18.69;68.32;100071.88;5027119;28;20511;-80
2021/08/08 08:36:17;;;;;;;3.60;1.30;;;;;;;18.71;69.00;100086.09;5026561;28;20467;-79
2021/08/08 08:38:42;;;;;;;2.83;1.27;;;;;;;18.72;68.33;100077.56;5022049;28;20398;-80
2021/08/08 08:41:12;;;;;;;4.77;1.87;;;;;;;18.70;68.92;100098.22;5024935;28;20461;-80
2021/08/08 08:43:39;;;;;;;3.17;2.13;;;;;;;18.56;69.44;100104.53;5025958;28;20904;-83
2021/08/08 08:46:05;;;;;;;5.30;1.90;;;;;;;18.50;70.75;100103.03;5024641;28;20434;-83
2021/08/08 08:48:36;;;;;;;3.93;1.63;;;;;;;18.42;71.83;100097.38;5028308;28;20926;-80
2021/08/08 08:51:04;;;;;;;5.65;1.85;;;;;;;18.40;72.85;100089.47;5031268;28;20415;-80
2021/08/08 08:53:29;;;;;;;2.53;1.20;;;;;;;18.42;72.65;100097.38;5025073;28;20790;-81
2021/08/08 08:55:54;;;;;;;5.13;1.30;;;;;;;18.54;71.62;100090.28;5029276;28;20493;-80
2021/08/08 08:58:20;;;;;;;4.32;1.98;;;;;;;18.76;72.55;100086.00;5028498;28;20414;-80
2021/08/08 09:00:46;;;;;;;3.57;1.60;;;;;;;19.01;72.80;100093.66;5028793;28;20403;-79
2021/08/08 09:03:12;;;;;;;5.30;2.10;;;;;;;19.22;72.86;100091.28;5029914;28;20403;-79
2021/08/08 09:05:37;;;;;;;3.83;2.00;;;;;;;19.38;71.16;100101.59;5024151;28;20735;-79
2021/08/08 09:08:02;;;;;;;3.33;1.50;;;;;;;19.41;70.85;100097.44;5026942;28;20437;-79
2021/08/08 09:10:28;;;;;;;2.33;1.40;;;;;;;19.33;69.97;100101.69;5031546;28;20441;-80
2021/08/08 09:12:57;;;;;;;4.55;1.73;;;;;;;19.28;69.42;100092.78;5033443;28;20438;-81
2021/08/08 09:15:31;;;;;;;3.13;1.40;;;;;;;19.37;69.23;100093.66;5032151;28;20403;-81
2021/08/08 09:18:08;;;;;;;4.70;2.00;;;;;;;19.56;68.33;100097.06;5031696;28;20419;-83
2021/08/08 09:20:33;;;;;;;5.60;1.63;;;;;;;19.71;68.59;100099.44;5028789;28;20961;-82
2021/08/08 09:22:58;;;;;;;3.73;1.63;;;;;;;19.79;67.71;100093.16;5011790;28;20506;-82
2021/08/08 09:25:24;;;;;;;3.33;1.63;;;;;;;19.98;66.96;100102.03;5009570;28;20510;-83
2021/08/08 09:27:49;;;;;;;6.00;1.90;;;;;;;20.11;65.49;100098.38;5026662;28;20436;-82
2021/08/08 09:30:21;;;;;;;5.60;1.30;;;;;;;20.02;65.52;100099.47;5023406;28;20435;-82
2021/08/08 09:32:47;;;;;;;2.75;1.40;;;;;;;20.12;64.67;100097.22;5027196;28;20594;-83
2021/08/08 09:35:21;;;;;;;5.83;1.70;;;;;;;20.22;64.50;100096.13;5026747;28;20506;-82
2021/08/08 09:38:07;;;;;;;4.03;1.88;;;;;;;20.45;64.23;100091.41;5025102;28;20403;-82
2021/08/08 09:40:33;;;;;;;6.90;2.43;;;;;;;20.78;63.81;100100.88;5025388;28;20419;-82
2021/08/08 09:42:58;;;;;;;2.70;1.40;;;;;;;20.95;62.79;100111.91;5031035;28;20474;-83
2021/08/08 09:45:43;;;;;;;5.50;2.03;;;;;;;21.27;61.41;100102.44;5007890;28;20533;-84
2021/08/08 09:48:12;;;;;;;5.68;1.60;;;;;;;21.27;61.72;100091.41;5002578;28;20418;-85
2021/08/08 09:50:41;;;;;;;4.35;1.95;;;;;;;21.36;60.79;100099.66;5000830;28;20410;-85
2021/08/08 09:53:09;;;;;;;4.47;1.70;;;;;;;21.21;59.25;100100.94;5002807;28;20446;-84
2021/08/08 09:55:39;;;;;;;4.22;1.27;;;;;;;21.02;59.53;100100.41;5007439;28;20415;-82
2021/08/08 09:58:06;;;;;;;6.20;1.70;;;;;;;20.81;58.97;100096.69;5004639;28;20414;-83
2021/08/08 10:00:39;;;;;;;7.57;1.70;;;;;;;20.61;59.45;100104.38;5000768;28;20419;-82
2021/08/08 10:03:14;;;;;;;3.53;1.50;;;;;;;20.46;60.33;100107.59;5015527;28;20751;-86
2021/08/08 10:05:44;;;;;;;6.78;1.83;;;;;;;20.33;60.48;100108.50;5029701;28;20399;-83
2021/08/08 10:08:19;;;;;;;5.22;1.75;;;;;;;20.24;61.03;100106.84;5017486;28;20916;-83
2021/08/08 10:10:46;;;;;;;6.72;1.80;;;;;;;20.14;61.06;100108.75;5030520;28;20413;-82
2021/08/08 10:13:28;;;;;;;5.88;2.08;;;;;;;19.96;61.75;100109.75;5036021;28;20425;-82
2021/08/08 10:15:56;;;;;;;5.80;1.80;;;;;;;19.87;62.62;100121.84;5029782;28;20414;-85
2021/08/08 10:18:28;;;;;;;5.05;2.30;;;;;;;19.89;62.52;100120.41;5028133;28;20782;-84
2021/08/08 10:20:54;;;;;;;2.08;1.05;;;;;;;19.89;61.13;100122.34;5032985;28;20464;-85
2021/08/08 10:23:21;;;;;;;2.73;1.10;;;;;;;19.74;60.74;100126.28;5041468;28;20401;-83
2021/08/08 10:25:48;;;;;;;1.95;1.02;;;;;;;20.09;61.42;100119.88;5043675;28;20399;-81
2021/08/08 10:28:15;;;;;;;3.43;1.30;;;;;;;21.53;56.40;100121.72;5034312;28;20418;-82
2021/08/08 10:30:41;;;;;;;2.05;0.93;;;;;;;22.24;53.01;100125.63;5025906;28;20465;-82
2021/08/08 10:33:08;;;;;;;1.85;1.10;;;;;;;21.86;54.09;100116.47;5028719;28;20415;-84
2021/08/08 10:35:48;;;;;;;3.03;1.00;;;;;;;22.19;55.02;100126.66;5027208;28;21454;-84
2021/08/08 10:38:15;;;;;;;3.30;0.90;;;;;;;22.52;53.93;100120.50;5025850;28;20411;-84
2021/08/08 10:40:41;;;;;;;2.85;1.35;;;;;;;22.79;51.31;100120.03;5026878;28;20415;-84
2021/08/08 10:43:09;;;;;;;3.22;1.17;;;;;;;22.37;52.73;100113.56;5025496;28;20488;-81
2021/08/08 10:45:36;;;;;;;4.35;1.15;;;;;;;22.13;52.92;100116.91;5025116;28;21822;-83
2021/08/08 10:48:06;;;;;;;1.17;0.63;;;;;;;21.92;53.73;100121.53;5026814;28;20407;-81
2021/08/08 10:50:41;;;;;;;2.03;1.27;;;;;;;21.73;54.98;100130.09;5027403;28;20769;-81
2021/08/08 10:53:20;;;;;;;3.60;1.08;;;;;;;21.30;56.67;100137.63;5027160;28;20506;-83
2021/08/08 10:55:46;;;;;;;5.97;1.27;;;;;;;21.07;57.71;100114.06;5039542;28;20528;-82
2021/08/08 10:58:14;;;;;;;2.85;1.38;;;;;;;20.92;57.76;100129.09;5014613;28;20411;-82
2021/08/08 11:00:40;;;;;;;1.63;0.85;;;;;;;20.66;59.39;100128.22;5029740;28;21067;-85
2021/08/08 11:03:16;;;;;;;3.40;1.60;;;;;;;20.52;61.31;100125.59;5027559;28;20414;-85
2021/08/08 11:05:43;;;;;;;5.07;1.30;;;;;;;20.39;61.06;100125.69;5035407;28;20433;-84
2021/08/08 11:08:10;;;;;;;3.67;1.35;;;;;;;20.17;62.53;100130.13;5030205;28;20418;-82
2021/08/08 11:10:39;;;;;;;3.13;1.37;;;;;;;19.98;63.58;100136.97;5030866;28;20399;-82
2021/08/08 11:13:16;;;;;;;4.07;1.80;;;;;;;19.84;64.91;100133.47;5030605;28;20399;-81
2021/08/08 11:15:43;;;;;;;5.05;1.70;;;;;;;19.88;65.18;100134.47;5028812;28;20402;-81
2021/08/08 11:18:08;;;;;;;4.88;1.65;;;;;;;19.83;65.58;100162.09;5026808;28;20801;-81
2021/08/08 11:20:33;;;;;;;2.10;1.10;;;;;;;19.49;65.36;100177.22;5030778;28;20427;-82
2021/08/08 11:23:02;;;;;;;1.40;1.30;;;;;;;19.11;65.64;100179.41;5030843;28;20787;-81
2021/08/08 11:25:43;;;;;;;3.97;1.30;;;;;;;18.95;66.97;100164.38;5034888;28;20394;-79